Reddick, IL (60961)

6:06 AM CDT on April 24, 2017 (GMT -0500)
Lake Shannon | | Change Station

Elev 587 ft 41.15 °N, 88.24 °W | Updated 16 seconds ago

Clear
Clear
40.7 °F
Feels Like 41 °F
N
0.0
Wind Variable Wind from East

Today
High -- | Low -- °F
--% Chance of Precip.
Yesterday
High -- | Low -- °F
Precip. -- in
Pressure 30.02 in
Visibility 10.0 miles
Clouds Clear
Windchill 41 °F
Dew Point 34 °F
Humidity 79%
Rainfall 0.00 in
Snow Depth Not available.
5:59 AM 7:42 PM
Waning Crescent, 6% visible
METAR KIKK 241055Z AUTO 00000KT 10SM CLR 03/M01 A3002 RMK AO2 T00341007
Pressure 30.02 in
Visibility 10.0 miles
Clouds Clear
Windchill 41 °F
Dew Point 34 °F
Humidity 79%
Rainfall 0.00 in
Snow Depth Not available.
5:59 AM 7:42 PM
Waning Crescent, 6% visible
METAR KIKK 241055Z AUTO 00000KT 10SM CLR 03/M01 A3002 RMK AO2 T00341007

Get Severe Weather Alerts

Thanks for signing up!

Be on the lookout for a verification email in your inbox.

You'll start receiving the daily forecast at 8 AM.

×

10-Day Weather Forecast

Almanac

Astronomy

Apr. 24, 2017 Rise Set
Actual Time
Civil Twilight
Nautical Twilight
Astronomical Twilight
Moon
Length of Visible Light
Length of Day
Tomorrow will be .
, % of the Moon is Illuminated

Today's Extremes

State Highs State Lows

Community

WunderPhotos

WunderBlog® & News

Nearby

Air Quality

  Air Quality AQ Index Pollutant
Not available.

Snow Depth

Station Depth Elevation

Earthquake Activity

City Distance Mag. Time & Date
Minimum magnitude displayed is 2.5.

Coastal Water Temperatures

Place Temperature

Stations

Nearby Weather Stations

Station Location Temp. Windchill Dew Point Humidity Wind Precip. Elev Updated Type
                   

Watches & Warnings

There are currently no watches in effect.